Rockwell, North Carolina
Current Conditions -  °F | °C
As of 12:15 PM on Friday 24 Oct 2014 (Local Time) from KRUQ Reporting Station
Clear Clear  
Wind Chill: 62°   Ceiling: Unl
Heat Index: 62°   Visibility: 10mi
Dew Point: 42°   Wind: 0mph
Humidity: 48%   Direction: NA
Pressure: 30.06"   Gusts: NA
Location:  35.55°N, 80.41°W
Report Text: KRUQ 241615Z AUTO 00000KT 10SM CLR 17/06 A3006 RMK AO2 T01670057
Loading
Personal Weather Stations






























Interactive Weather Map
Tropical Storm Tracking
New forecast layout! Learn more

10-Day Weather Forecast

Advertisements
Track Severe Weather on mobile